createdAt,value
2019-03-30T00:01:09.991Z,4.07
2019-03-30T00:03:39.724Z,4.40
2019-03-30T00:06:09.495Z,3.83
2019-03-30T00:08:39.376Z,4.23
2019-03-30T00:11:09.106Z,3.73
2019-03-30T00:13:39.000Z,4.30
2019-03-30T00:16:08.967Z,4.77
2019-03-30T00:18:41.382Z,4.40
2019-03-30T00:21:10.521Z,5.27
2019-03-30T00:23:40.364Z,4.90
2019-03-30T00:26:10.137Z,4.13
2019-03-30T00:28:40.155Z,5.17
2019-03-30T00:31:09.968Z,4.47
2019-03-30T00:33:39.690Z,4.40
2019-03-30T00:36:09.695Z,4.80
2019-03-30T00:38:39.527Z,3.00
2019-03-30T00:41:09.257Z,5.17
2019-03-30T00:43:39.343Z,4.70
2019-03-30T00:46:09.123Z,5.27
2019-03-30T00:48:38.859Z,4.60
2019-03-30T00:51:08.982Z,5.10
2019-03-30T00:53:38.775Z,5.77
2019-03-30T00:56:08.503Z,5.03
2019-03-30T00:58:38.513Z,4.60
2019-03-30T01:01:08.300Z,4.20
2019-03-30T01:03:38.045Z,4.60
2019-03-30T01:06:08.051Z,5.50
2019-03-30T01:08:37.834Z,5.23
2019-03-30T01:11:07.715Z,4.83
2019-03-30T01:13:37.691Z,6.00
2019-03-30T01:16:07.474Z,4.73
2019-03-30T01:18:37.201Z,5.03
2019-03-30T01:21:07.040Z,5.07
2019-03-30T01:23:36.922Z,4.27
2019-03-30T01:26:06.664Z,5.00
2019-03-30T01:28:36.677Z,5.47
2019-03-30T01:31:06.469Z,5.03
2019-03-30T01:33:36.206Z,4.97
2019-03-30T01:36:06.434Z,5.73
2019-03-30T01:38:36.200Z,4.03
2019-03-30T01:41:06.044Z,5.73
2019-03-30T01:43:35.946Z,4.50
2019-03-30T01:46:05.724Z,5.30
2019-03-30T01:48:35.499Z,4.53
2019-03-30T01:51:05.496Z,5.63
2019-03-30T01:53:35.372Z,5.33
2019-03-30T01:56:05.164Z,5.37
2019-03-30T01:58:35.129Z,4.73
2019-03-30T02:01:04.907Z,6.17
2019-03-30T02:03:34.639Z,5.17
2019-03-30T02:06:04.493Z,5.07
2019-03-30T02:08:34.358Z,5.63
2019-03-30T02:11:04.089Z,5.10
2019-03-30T02:13:34.019Z,5.70
2019-03-30T02:16:03.838Z,4.73
2019-03-30T02:18:33.606Z,5.20
2019-03-30T02:21:03.459Z,4.70
2019-03-30T02:23:33.455Z,4.27
2019-03-30T02:26:03.344Z,5.03
2019-03-30T02:28:33.080Z,5.37
2019-03-30T02:31:03.093Z,5.03
2019-03-30T02:33:32.941Z,6.63
2019-03-30T02:36:02.671Z,5.57
2019-03-30T02:38:32.636Z,5.10
2019-03-30T02:41:02.660Z,5.90
2019-03-30T02:43:32.466Z,5.77
2019-03-30T02:46:02.672Z,5.33
2019-03-30T02:48:32.768Z,4.20
2019-03-30T02:51:02.573Z,5.73
2019-03-30T02:53:32.637Z,4.57
2019-03-30T02:56:02.572Z,4.67
2019-03-30T02:58:32.301Z,3.60
2019-03-30T03:01:02.166Z,5.43
2019-03-30T03:03:31.934Z,5.57
2019-03-30T03:06:01.655Z,5.50
2019-03-30T03:08:31.718Z,3.10
2019-03-30T03:11:01.751Z,5.07
2019-03-30T03:13:31.483Z,5.07
2019-03-30T03:16:01.285Z,5.80
2019-03-30T03:18:31.261Z,4.73
2019-03-30T03:21:07.800Z,4.73
2019-03-30T03:23:32.760Z,5.03
2019-03-30T03:26:02.759Z,5.43
2019-03-30T03:28:32.551Z,4.73
2019-03-30T03:31:02.365Z,4.87
2019-03-30T03:33:32.380Z,4.80
2019-03-30T03:36:02.236Z,5.13
2019-03-30T03:38:32.038Z,4.73
2019-03-30T03:41:01.945Z,4.47
2019-03-30T03:43:31.694Z,5.80
2019-03-30T03:46:01.814Z,5.50
2019-03-30T03:48:31.766Z,5.37
2019-03-30T03:51:04.655Z,5.40
2019-03-30T03:53:36.000Z,5.60
2019-03-30T03:56:06.672Z,6.80
2019-03-30T03:58:37.820Z,4.43
2019-03-30T04:01:07.596Z,5.73
2019-03-30T04:03:37.549Z,4.30
2019-03-30T04:06:07.423Z,4.53
2019-03-30T04:08:39.221Z,5.23
2019-03-30T04:11:10.627Z,5.97
2019-03-30T04:13:42.985Z,5.20
2019-03-30T04:16:12.855Z,4.17
2019-03-30T04:18:42.609Z,5.53
2019-03-30T04:21:12.311Z,5.53
2019-03-30T04:23:42.204Z,6.60
2019-03-30T04:26:11.942Z,5.17
2019-03-30T04:28:41.669Z,5.63
2019-03-30T04:31:11.586Z,5.90
2019-03-30T04:33:41.325Z,5.13
2019-03-30T04:36:11.045Z,5.33
2019-03-30T04:38:40.910Z,5.83
2019-03-30T04:41:10.662Z,5.23
2019-03-30T04:43:40.469Z,5.87
2019-03-30T04:46:10.547Z,5.30
2019-03-30T04:48:40.418Z,5.80
2019-03-30T04:51:10.147Z,5.37
2019-03-30T04:53:40.185Z,4.97
2019-03-30T04:56:09.944Z,4.63
2019-03-30T04:58:39.677Z,4.97
2019-03-30T05:01:09.601Z,5.13
2019-03-30T05:03:39.335Z,5.00
2019-03-30T05:06:09.096Z,5.10
2019-03-30T05:08:39.012Z,4.80
2019-03-30T05:11:08.842Z,4.47
2019-03-30T05:13:38.782Z,4.47
2019-03-30T05:16:08.900Z,4.30
2019-03-30T05:18:38.711Z,4.13
2019-03-30T05:21:08.458Z,4.77
2019-03-30T05:23:38.330Z,4.67
2019-03-30T05:26:08.100Z,5.33
2019-03-30T05:28:37.828Z,3.80
2019-03-30T05:31:07.742Z,4.83
2019-03-30T05:33:37.477Z,5.80
2019-03-30T05:36:07.220Z,4.87
2019-03-30T05:38:37.312Z,5.50
2019-03-30T05:41:07.050Z,4.27
2019-03-30T05:43:36.765Z,4.30
2019-03-30T05:46:06.715Z,4.37
2019-03-30T05:48:36.461Z,5.23
2019-03-30T05:51:06.298Z,4.97
2019-03-30T05:53:36.282Z,3.83
2019-03-30T05:56:06.008Z,5.10
2019-03-30T05:58:35.782Z,5.10
2019-03-30T06:01:05.654Z,4.63
2019-03-30T06:03:35.415Z,4.10
2019-03-30T06:06:05.156Z,4.83
2019-03-30T06:08:35.021Z,4.80
2019-03-30T06:11:04.769Z,4.23
2019-03-30T06:13:34.502Z,5.30
2019-03-30T06:16:04.378Z,5.00
2019-03-30T06:18:36.032Z,4.27
2019-03-30T06:21:07.135Z,4.07
2019-03-30T06:23:36.860Z,4.27
2019-03-30T06:26:06.648Z,4.47
2019-03-30T06:28:36.621Z,3.77
2019-03-30T06:31:06.363Z,4.43
2019-03-30T06:33:36.095Z,4.37
2019-03-30T06:36:08.051Z,4.17
2019-03-30T06:38:37.510Z,4.73
2019-03-30T06:41:07.526Z,5.03
2019-03-30T06:43:37.334Z,4.30
2019-03-30T06:46:07.081Z,5.07
2019-03-30T06:48:37.648Z,4.93
2019-03-30T06:51:07.409Z,4.37
2019-03-30T06:53:37.257Z,3.53
2019-03-30T06:56:07.221Z,4.47
2019-03-30T06:58:37.037Z,4.10
2019-03-30T07:01:06.771Z,3.90
2019-03-30T07:03:37.029Z,4.27
2019-03-30T07:06:08.490Z,3.90
2019-03-30T07:08:40.455Z,4.27
2019-03-30T07:11:21.009Z,3.60
2019-03-30T07:13:45.295Z,4.93
2019-03-30T07:16:17.335Z,4.63
2019-03-30T07:18:47.808Z,4.07
2019-03-30T07:21:17.594Z,4.50
2019-03-30T07:23:47.325Z,4.43
2019-03-30T07:26:17.342Z,4.30
2019-03-30T07:28:48.592Z,4.10
2019-03-30T07:31:18.505Z,3.77
2019-03-30T07:33:48.263Z,2.90
2019-03-30T07:36:18.027Z,3.33
2019-03-30T07:38:47.942Z,4.20
2019-03-30T07:41:17.705Z,4.70
2019-03-30T07:43:47.586Z,4.43
2019-03-30T07:46:19.637Z,3.33
2019-03-30T07:48:49.245Z,4.23
2019-03-30T07:51:19.177Z,3.73
2019-03-30T07:53:48.959Z,3.33
2019-03-30T07:56:18.858Z,3.63
2019-03-30T07:58:48.844Z,3.10
2019-03-30T08:01:18.742Z,3.90
2019-03-30T08:03:48.532Z,4.13
2019-03-30T08:06:18.400Z,3.17
2019-03-30T08:08:48.139Z,2.73
2019-03-30T08:11:17.873Z,3.13
2019-03-30T08:13:47.823Z,2.80
2019-03-30T08:16:17.938Z,3.03
2019-03-30T08:18:47.673Z,2.90
2019-03-30T08:21:18.453Z,3.70
2019-03-30T08:23:48.194Z,3.03
2019-03-30T08:26:17.926Z,2.47
2019-03-30T08:28:47.805Z,3.10
2019-03-30T08:31:17.636Z,3.53
2019-03-30T08:33:47.528Z,2.87
2019-03-30T08:36:17.334Z,3.10
2019-03-30T08:38:47.185Z,2.67
2019-03-30T08:41:16.970Z,2.77
2019-03-30T08:43:46.768Z,3.47
2019-03-30T08:46:16.690Z,2.60
2019-03-30T08:48:46.469Z,3.10
2019-03-30T08:51:16.475Z,2.57
2019-03-30T08:53:54.511Z,2.67
2019-03-30T08:56:17.982Z,3.27
2019-03-30T08:58:47.977Z,3.57
2019-03-30T09:01:17.854Z,2.03
2019-03-30T09:03:47.682Z,2.67
2019-03-30T09:06:17.708Z,1.57
2019-03-30T09:08:47.478Z,2.40
2019-03-30T09:11:17.212Z,2.73
2019-03-30T09:13:47.190Z,3.00
2019-03-30T09:16:17.007Z,2.57
2019-03-30T09:18:46.750Z,2.63
2019-03-30T09:21:16.937Z,2.93
2019-03-30T09:23:46.661Z,2.20
2019-03-30T09:26:16.880Z,2.67
2019-03-30T09:28:46.834Z,2.27
2019-03-30T09:31:16.574Z,2.20
2019-03-30T09:33:46.321Z,2.63
2019-03-30T09:36:16.269Z,1.87
2019-03-30T09:38:45.997Z,2.83
2019-03-30T09:41:15.831Z,2.50
2019-03-30T09:43:45.710Z,2.00
2019-03-30T09:46:15.435Z,2.55
2019-03-30T09:48:45.281Z,1.80
2019-03-30T09:51:15.351Z,2.25
2019-03-30T09:53:45.082Z,1.98
2019-03-30T09:56:14.825Z,2.20
2019-03-30T09:58:44.982Z,2.17
2019-03-30T10:01:14.811Z,2.10
2019-03-30T10:03:44.637Z,2.53
2019-03-30T10:06:14.507Z,2.33
2019-03-30T10:08:44.386Z,2.93
2019-03-30T10:11:14.107Z,2.33
2019-03-30T10:13:44.166Z,2.17
2019-03-30T10:16:13.959Z,2.60
2019-03-30T10:18:43.714Z,2.33
2019-03-30T10:21:13.811Z,2.30
2019-03-30T10:23:43.555Z,2.40
2019-03-30T10:26:13.296Z,2.83
2019-03-30T10:28:43.152Z,2.30
2019-03-30T10:31:12.895Z,2.20
2019-03-30T10:33:42.634Z,1.80
2019-03-30T10:36:12.679Z,2.40
2019-03-30T10:38:42.440Z,1.90
2019-03-30T10:41:12.159Z,2.55
2019-03-30T10:43:42.099Z,2.30
2019-03-30T10:46:11.881Z,2.30
2019-03-30T10:48:41.734Z,1.60
2019-03-30T10:51:11.627Z,2.37
2019-03-30T10:53:41.409Z,2.02
2019-03-30T10:56:11.229Z,2.52
2019-03-30T10:58:41.208Z,2.90
2019-03-30T11:01:11.058Z,2.08
2019-03-30T11:03:41.120Z,1.92
2019-03-30T11:06:11.038Z,2.35
2019-03-30T11:08:40.836Z,1.77
2019-03-30T11:11:10.712Z,2.57
2019-03-30T11:13:40.687Z,2.00
2019-03-30T11:16:10.443Z,2.27
2019-03-30T11:18:40.220Z,2.40
2019-03-30T11:21:10.214Z,2.03
2019-03-30T11:23:39.950Z,2.17
2019-03-30T11:26:09.665Z,2.00
2019-03-30T11:28:39.657Z,1.80
2019-03-30T11:31:09.405Z,2.65
2019-03-30T11:33:39.171Z,2.00
2019-03-30T11:36:09.144Z,2.17
2019-03-30T11:38:38.860Z,2.02
2019-03-30T11:41:08.619Z,1.52
2019-03-30T11:43:38.522Z,2.25
2019-03-30T11:46:08.269Z,2.02
2019-03-30T11:48:38.098Z,2.20
2019-03-30T11:51:07.987Z,2.30
2019-03-30T11:53:37.735Z,2.22
2019-03-30T11:56:07.590Z,1.80
2019-03-30T11:58:37.549Z,2.12
2019-03-30T12:01:07.286Z,2.00
2019-03-30T12:03:37.360Z,0.93
2019-03-30T12:06:08.525Z,1.20
2019-03-30T12:08:38.254Z,1.82
2019-03-30T12:11:08.036Z,1.80
2019-03-30T12:13:37.914Z,1.43
2019-03-30T12:16:07.708Z,1.90
2019-03-30T12:18:37.517Z,1.47
2019-03-30T12:21:07.280Z,1.40
2019-03-30T12:23:37.019Z,1.50
2019-03-30T12:26:06.936Z,1.82
2019-03-30T12:28:36.799Z,1.85
2019-03-30T12:31:06.527Z,2.52
2019-03-30T12:33:36.497Z,1.75
2019-03-30T12:36:06.691Z,1.50
2019-03-30T12:38:36.522Z,1.72
2019-03-30T12:41:06.429Z,1.62
2019-03-30T12:43:39.047Z,1.98
2019-03-30T12:46:08.010Z,1.70
2019-03-30T12:48:37.753Z,2.40
2019-03-30T12:51:07.519Z,1.80
2019-03-30T12:53:49.490Z,1.80
2019-03-30T12:56:09.567Z,2.00
2019-03-30T12:58:39.662Z,1.70
2019-03-30T13:01:09.379Z,1.62
2019-03-30T13:03:39.212Z,1.60
2019-03-30T13:06:09.124Z,1.70
2019-03-30T13:08:39.045Z,1.57
2019-03-30T13:11:08.858Z,2.00
2019-03-30T13:13:38.942Z,1.42
2019-03-30T13:16:08.672Z,1.37
2019-03-30T13:18:38.399Z,1.70
2019-03-30T13:21:08.304Z,1.47
2019-03-30T13:23:38.047Z,2.00
2019-03-30T13:26:07.903Z,1.53
2019-03-30T13:28:37.779Z,1.97
2019-03-30T13:31:08.093Z,1.57
2019-03-30T13:33:37.992Z,1.87
2019-03-30T13:36:10.813Z,1.90
2019-03-30T13:38:41.033Z,1.27
2019-03-30T13:41:13.977Z,1.77
2019-03-30T13:43:42.462Z,1.53
2019-03-30T13:46:12.202Z,1.67
2019-03-30T13:48:41.939Z,2.30
2019-03-30T13:51:11.806Z,2.10
2019-03-30T13:53:41.535Z,2.00
2019-03-30T13:56:17.217Z,1.63
2019-03-30T13:58:42.989Z,2.30
2019-03-30T14:01:12.722Z,1.85
2019-03-30T14:03:42.471Z,1.67
2019-03-30T14:06:12.383Z,1.65
2019-03-30T14:08:42.133Z,2.08
2019-03-30T14:11:11.976Z,2.37
2019-03-30T14:13:41.827Z,1.70
2019-03-30T14:16:11.603Z,1.50
2019-03-30T14:18:41.334Z,1.62
2019-03-30T14:21:11.418Z,1.85
2019-03-30T14:23:43.493Z,1.87
2019-03-30T14:26:12.709Z,1.72
2019-03-30T14:28:42.973Z,1.80
2019-03-30T14:31:12.810Z,2.35
2019-03-30T14:33:42.750Z,1.02
2019-03-30T14:36:12.627Z,1.98
2019-03-30T14:38:43.711Z,1.87
2019-03-30T14:41:13.471Z,1.65
2019-03-30T14:43:43.325Z,2.05
2019-03-30T14:46:13.259Z,1.77
2019-03-30T14:48:43.039Z,2.02
2019-03-30T14:51:12.806Z,1.90
2019-03-30T14:53:42.691Z,1.52
2019-03-30T14:56:12.466Z,2.10
2019-03-30T14:58:42.254Z,1.80
2019-03-30T15:01:12.197Z,1.85
2019-03-30T15:03:41.917Z,1.50
2019-03-30T15:06:11.704Z,1.70
2019-03-30T15:08:41.737Z,1.80
2019-03-30T15:11:11.561Z,1.87
2019-03-30T15:13:41.502Z,1.52
2019-03-30T15:16:11.323Z,1.95
2019-03-30T15:18:41.130Z,2.07
2019-03-30T15:21:10.873Z,1.73
2019-03-30T15:23:40.915Z,1.77
2019-03-30T15:26:10.646Z,2.40
2019-03-30T15:28:42.774Z,1.43
2019-03-30T15:31:12.078Z,2.00
2019-03-30T15:33:41.858Z,2.03
2019-03-30T15:36:12.021Z,2.33
2019-03-30T15:38:42.129Z,2.27
2019-03-30T15:41:11.897Z,1.70
2019-03-30T15:43:41.717Z,1.70
2019-03-30T15:46:14.231Z,2.13
2019-03-30T15:48:43.056Z,2.37
2019-03-30T15:51:13.229Z,2.27
2019-03-30T15:53:43.001Z,1.80
2019-03-30T15:56:13.235Z,1.73
2019-03-30T15:58:43.357Z,2.00
2019-03-30T16:01:13.099Z,2.40
2019-03-30T16:03:42.977Z,2.57
2019-03-30T16:06:13.022Z,1.83
2019-03-30T16:08:42.798Z,2.80
2019-03-30T16:11:12.655Z,2.20
2019-03-30T16:13:42.631Z,2.17
2019-03-30T16:16:12.552Z,2.00
2019-03-30T16:18:42.336Z,2.00
2019-03-30T16:21:12.516Z,2.17
2019-03-30T16:23:42.347Z,2.03
2019-03-30T16:26:12.208Z,2.07
2019-03-30T16:28:42.160Z,2.00
2019-03-30T16:31:11.968Z,2.27
2019-03-30T16:33:41.768Z,2.43
2019-03-30T16:36:11.779Z,1.63
2019-03-30T16:38:41.546Z,2.53
2019-03-30T16:41:11.360Z,2.27
2019-03-30T16:43:41.332Z,2.30
2019-03-30T16:46:11.123Z,2.30
2019-03-30T16:48:41.133Z,2.37
2019-03-30T16:51:11.134Z,2.33
2019-03-30T16:53:40.947Z,2.77
2019-03-30T16:56:10.732Z,2.37
2019-03-30T16:58:40.605Z,3.30
2019-03-30T17:01:10.660Z,3.07
2019-03-30T17:03:40.447Z,4.33
2019-03-30T17:06:10.772Z,2.63
2019-03-30T17:08:40.535Z,3.73
2019-03-30T17:11:10.419Z,4.00
2019-03-30T17:13:40.339Z,1.87
2019-03-30T17:16:10.217Z,2.10
2019-03-30T17:18:40.174Z,2.80
2019-03-30T17:21:10.073Z,2.90
2019-03-30T17:23:39.862Z,2.40
2019-03-30T17:26:09.628Z,3.17
2019-03-30T17:28:39.591Z,2.53
2019-03-30T17:31:09.707Z,3.17
2019-03-30T17:33:39.613Z,3.03
2019-03-30T17:36:09.565Z,3.37
2019-03-30T17:38:41.992Z,2.37
2019-03-30T17:41:11.826Z,2.97
2019-03-30T17:43:41.606Z,2.73
2019-03-30T17:46:11.338Z,2.70
2019-03-30T17:48:41.771Z,2.83
2019-03-30T17:51:11.617Z,2.07
2019-03-30T17:53:41.393Z,3.30
2019-03-30T17:56:11.257Z,2.83
2019-03-30T17:58:41.118Z,3.20
2019-03-30T18:01:10.869Z,3.20
2019-03-30T18:03:40.775Z,2.30
2019-03-30T18:06:10.679Z,2.90
2019-03-30T18:08:42.129Z,3.17
2019-03-30T18:11:11.976Z,3.37
2019-03-30T18:13:41.926Z,2.77
2019-03-30T18:16:11.890Z,2.10
2019-03-30T18:18:41.656Z,2.27
2019-03-30T18:21:11.599Z,2.93
2019-03-30T18:23:41.465Z,3.40
2019-03-30T18:26:11.195Z,1.93
2019-03-30T18:28:41.108Z,3.00
2019-03-30T18:31:11.355Z,3.50
2019-03-30T18:33:41.246Z,2.77
2019-03-30T18:36:13.038Z,3.33
2019-03-30T18:38:43.797Z,3.93
2019-03-30T18:41:13.758Z,2.43
2019-03-30T18:43:43.782Z,4.10
2019-03-30T18:46:13.609Z,3.73
2019-03-30T18:48:43.420Z,2.63
2019-03-30T18:51:13.953Z,3.23
2019-03-30T18:53:44.339Z,3.17
2019-03-30T18:56:14.126Z,3.90
2019-03-30T18:58:44.313Z,3.40
2019-03-30T19:01:14.108Z,3.93
2019-03-30T19:03:43.858Z,4.20
2019-03-30T19:06:13.926Z,3.37
2019-03-30T19:08:43.735Z,3.60
2019-03-30T19:11:13.514Z,4.40
2019-03-30T19:13:43.483Z,3.17
2019-03-30T19:16:13.224Z,3.70
2019-03-30T19:18:43.043Z,4.10
2019-03-30T19:21:13.101Z,5.30
2019-03-30T19:23:42.959Z,5.43
2019-03-30T19:26:12.782Z,5.77
2019-03-30T19:28:55.634Z,5.23
2019-03-30T19:31:14.294Z,4.03
2019-03-30T19:33:44.337Z,5.40
2019-03-30T19:36:14.214Z,4.20
2019-03-30T19:38:43.990Z,4.20
2019-03-30T19:41:13.880Z,5.17
2019-03-30T19:43:43.794Z,5.67
2019-03-30T19:46:13.637Z,3.77
2019-03-30T19:48:43.822Z,5.43
2019-03-30T19:51:13.677Z,5.33
2019-03-30T19:53:43.416Z,5.80
2019-03-30T19:56:13.571Z,6.33
2019-03-30T19:58:43.362Z,6.10
2019-03-30T20:01:13.133Z,5.10
2019-03-30T20:03:43.308Z,6.33
2019-03-30T20:06:13.085Z,6.63
2019-03-30T20:08:42.858Z,7.07
2019-03-30T20:11:13.057Z,6.93
2019-03-30T20:13:42.843Z,7.07
2019-03-30T20:16:12.606Z,5.97
2019-03-30T20:18:42.490Z,7.77
2019-03-30T20:21:12.269Z,9.13
2019-03-30T20:23:42.049Z,6.07
2019-03-30T20:26:12.304Z,8.97
2019-03-30T20:28:42.152Z,6.03
2019-03-30T20:31:11.873Z,7.07
2019-03-30T20:33:41.875Z,9.33
2019-03-30T20:36:11.684Z,7.57
2019-03-30T20:38:41.480Z,5.70
2019-03-30T20:41:11.413Z,9.57
2019-03-30T20:43:41.211Z,9.47
2019-03-30T20:46:11.003Z,9.57
2019-03-30T20:48:40.966Z,9.50
2019-03-30T20:51:10.761Z,8.00
2019-03-30T20:53:40.534Z,9.43
2019-03-30T20:56:10.418Z,8.53
2019-03-30T20:58:40.269Z,8.47
2019-03-30T21:01:10.052Z,11.33
2019-03-30T21:03:39.904Z,11.83
2019-03-30T21:06:09.732Z,9.23
2019-03-30T21:08:39.623Z,11.97
2019-03-30T21:11:09.484Z,12.10
2019-03-30T21:13:39.332Z,10.43
2019-03-30T21:16:09.112Z,12.57
2019-03-30T21:18:39.394Z,8.07
2019-03-30T21:21:09.418Z,10.77
2019-03-30T21:23:39.238Z,9.23
2019-03-30T21:26:09.048Z,12.20
2019-03-30T21:28:39.001Z,9.33
2019-03-30T21:31:08.807Z,9.23
2019-03-30T21:33:38.781Z,10.80
2019-03-30T21:36:08.559Z,10.60
2019-03-30T21:38:38.282Z,13.30
2019-03-30T21:41:08.219Z,9.67
2019-03-30T21:43:38.033Z,11.77
2019-03-30T21:46:10.133Z,11.43
2019-03-30T21:48:40.054Z,13.57
2019-03-30T21:51:09.831Z,13.53
2019-03-30T21:53:39.635Z,13.00
2019-03-30T21:56:09.606Z,11.80
2019-03-30T21:58:39.383Z,11.53
2019-03-30T22:01:09.161Z,9.73
2019-03-30T22:03:39.190Z,13.17
2019-03-30T22:06:09.373Z,12.47
2019-03-30T22:08:39.437Z,12.83
2019-03-30T22:11:09.432Z,9.33
2019-03-30T22:13:39.289Z,9.37
2019-03-30T22:16:09.474Z,8.77
2019-03-30T22:18:39.382Z,9.03
2019-03-30T22:21:09.189Z,8.07
2019-03-30T22:23:39.014Z,8.93
2019-03-30T22:26:08.839Z,7.67
2019-03-30T22:28:38.619Z,7.60
2019-03-30T22:31:08.464Z,6.23
2019-03-30T22:33:38.664Z,8.60
2019-03-30T22:36:08.443Z,6.27
2019-03-30T22:38:38.277Z,8.60
2019-03-30T22:41:08.196Z,7.43
2019-03-30T22:43:37.967Z,7.00
2019-03-30T22:46:07.921Z,8.30
2019-03-30T22:48:37.990Z,7.63
2019-03-30T22:51:07.834Z,7.83
2019-03-30T22:53:37.646Z,7.80
2019-03-30T22:56:07.475Z,7.27
2019-03-30T22:58:37.321Z,8.40
2019-03-30T23:01:09.052Z,6.60
2019-03-30T23:03:38.862Z,5.07
2019-03-30T23:06:08.680Z,5.13
2019-03-30T23:08:38.600Z,5.83
2019-03-30T23:11:08.391Z,5.37
2019-03-30T23:13:38.145Z,5.80
2019-03-30T23:16:08.045Z,4.37
2019-03-30T23:18:37.846Z,5.77
2019-03-30T23:21:07.689Z,4.93
2019-03-30T23:23:37.508Z,4.10
2019-03-30T23:26:07.302Z,5.00
2019-03-30T23:28:37.045Z,4.07
2019-03-30T23:31:06.991Z,3.83
2019-03-30T23:33:36.893Z,2.97
2019-03-30T23:36:06.647Z,1.93
2019-03-30T23:38:36.845Z,2.40
2019-03-30T23:41:06.594Z,2.60
2019-03-30T23:43:36.390Z,2.53
2019-03-30T23:46:06.225Z,2.40
2019-03-30T23:48:35.981Z,2.10
2019-03-30T23:51:05.763Z,2.40
2019-03-30T23:53:35.702Z,2.53
2019-03-30T23:56:18.658Z,1.70
2019-03-30T23:58:48.747Z,2.60
